VIV1022 MMMX-MMUN
Flight info
| Callsign | VIV1022 |
|---|---|
| Flight time | N/A |
| Altitude | 35000 |
| Route | UKUNO3A UKUNO UT108 VER UJ24 GOTAS UT65 PAULE PAULE3G |
| Aircraft | A21N/M-SDE3FGHIRWY/LB1 |
Departure
| Time | 2026-05-07 22:21 |
|---|---|
| Airport | Mexico City Benito Juárez International Airport (MMMX) |
Arrival
| Time | N/A |
|---|---|
| Airport | Cancún International Airport (MMUN) |
| Time | Latitude | Longitude | Altitude | Speed | Heading |
|---|---|---|---|---|---|
| 2026-05-07 22:02 | 19.43204 | -99.08675 | 7343 ft | 0 kts | 336° |
| 2026-05-07 22:11 | 19.43198 | -99.08672 | 7343 ft | 2 kts | 336° |
| 2026-05-07 22:11 | 19.43185 | -99.08665 | 7343 ft | 2 kts | 336° |
| 2026-05-07 22:11 | 19.43171 | -99.08659 | 7343 ft | 2 kts | 336° |
| 2026-05-07 22:11 | 19.43157 | -99.08652 | 7343 ft | 1 kts | 335° |
| 2026-05-07 22:12 | 19.43148 | -99.08648 | 7343 ft | 2 kts | 328° |
| 2026-05-07 22:12 | 19.43138 | -99.08636 | 7343 ft | 2 kts | 294° |
| 2026-05-07 22:12 | 19.43135 | -99.08621 | 7343 ft | 2 kts | 265° |
| 2026-05-07 22:12 | 19.43138 | -99.08607 | 7343 ft | 0 kts | 242° |
| 2026-05-07 22:13 | 19.43142 | -99.08601 | 7343 ft | 1 kts | 238° |
| 2026-05-07 22:14 | 19.43140 | -99.08604 | 7343 ft | 0 kts | 238° |
| 2026-05-07 22:15 | 19.43139 | -99.08606 | 7343 ft | 0 kts | 238° |
| 2026-05-07 22:15 | 19.43138 | -99.08609 | 7343 ft | 0 kts | 241° |
| 2026-05-07 22:15 | 19.43136 | -99.08611 | 7343 ft | 0 kts | 240° |
| 2026-05-07 22:15 | 19.43135 | -99.08614 | 7343 ft | 0 kts | 240° |
| 2026-05-07 22:16 | 19.43130 | -99.08622 | 7343 ft | 2 kts | 240° |
| 2026-05-07 22:16 | 19.43119 | -99.08645 | 7343 ft | 4 kts | 240° |
| 2026-05-07 22:16 | 19.43099 | -99.08680 | 7343 ft | 6 kts | 238° |
| 2026-05-07 22:16 | 19.43073 | -99.08724 | 7342 ft | 8 kts | 239° |
| 2026-05-07 22:17 | 19.43050 | -99.08765 | 7341 ft | 6 kts | 239° |
| 2026-05-07 22:17 | 19.43025 | -99.08809 | 7340 ft | 8 kts | 240° |
| 2026-05-07 22:17 | 19.42996 | -99.08865 | 7339 ft | 6 kts | 240° |
| 2026-05-07 22:17 | 19.42978 | -99.08896 | 7339 ft | 6 kts | 239° |
| 2026-05-07 22:18 | 19.42952 | -99.08942 | 7338 ft | 9 kts | 240° |
| 2026-05-07 22:18 | 19.42875 | -99.09040 | 7336 ft | 8 kts | 213° |
| 2026-05-07 22:18 | 19.42832 | -99.09062 | 7335 ft | 6 kts | 204° |
| 2026-05-07 22:19 | 19.42785 | -99.09084 | 7334 ft | 8 kts | 203° |
| 2026-05-07 22:19 | 19.42754 | -99.09066 | 7334 ft | 3 kts | 77° |
| 2026-05-07 22:19 | 19.42758 | -99.09054 | 7334 ft | 0 kts | 65° |
| 2026-05-07 22:20 | 19.42818 | -99.08942 | 7336 ft | 48 kts | 59° |
| 2026-05-07 22:20 | 19.43096 | -99.08440 | 7344 ft | 109 kts | 57° |
| 2026-05-07 22:20 | 19.43586 | -99.07575 | 7340 ft | 162 kts | 59° |
| 2026-05-07 22:20 | 19.44215 | -99.06444 | 7588 ft | 184 kts | 61° |
| 2026-05-07 22:21 | 19.44852 | -99.05308 | 8281 ft | 177 kts | 60° |
| 2026-05-07 22:21 | 19.45497 | -99.04166 | 8733 ft | 188 kts | 60° |
| 2026-05-07 22:21 | 19.46176 | -99.02955 | 9226 ft | 196 kts | 59° |
| 2026-05-07 22:21 | 19.46882 | -99.01696 | 9484 ft | 204 kts | 59° |
| 2026-05-07 22:22 | 19.47614 | -99.00392 | 9700 ft | 213 kts | 59° |
| 2026-05-07 22:22 | 19.48394 | -98.99008 | 9923 ft | 223 kts | 59° |
| 2026-05-07 22:22 | 19.49211 | -98.97562 | 10139 ft | 234 kts | 59° |
| 2026-05-07 22:22 | 19.50061 | -98.96043 | 10348 ft | 245 kts | 59° |
| 2026-05-07 22:23 | 19.50942 | -98.94471 | 10529 ft | 257 kts | 59° |
| 2026-05-07 22:23 | 19.51883 | -98.92792 | 10670 ft | 271 kts | 59° |
| 2026-05-07 22:23 | 19.52826 | -98.91008 | 10882 ft | 283 kts | 64° |
| 2026-05-07 22:23 | 19.53590 | -98.89047 | 11104 ft | 294 kts | 71° |
| 2026-05-07 22:24 | 19.54181 | -98.86945 | 11379 ft | 302 kts | 75° |
| 2026-05-07 22:24 | 19.54737 | -98.84804 | 11820 ft | 305 kts | 75° |
| 2026-05-07 22:24 | 19.55299 | -98.82623 | 12303 ft | 306 kts | 75° |
| 2026-05-07 22:24 | 19.55863 | -98.80459 | 12761 ft | 308 kts | 75° |
| 2026-05-07 22:25 | 19.56439 | -98.78260 | 13208 ft | 310 kts | 75° |
| 2026-05-07 22:25 | 19.57013 | -98.76077 | 13650 ft | 312 kts | 75° |
| 2026-05-07 22:25 | 19.57462 | -98.73821 | 14105 ft | 313 kts | 85° |
| 2026-05-07 22:25 | 19.57454 | -98.71498 | 14502 ft | 315 kts | 98° |
| 2026-05-07 22:26 | 19.57068 | -98.69189 | 14697 ft | 325 kts | 102° |
| 2026-05-07 22:26 | 19.56586 | -98.66826 | 14888 ft | 335 kts | 103° |
| 2026-05-07 22:26 | 19.56080 | -98.64374 | 15078 ft | 345 kts | 103° |
| 2026-05-07 22:26 | 19.55562 | -98.61842 | 15259 ft | 355 kts | 103° |
| 2026-05-07 22:27 | 19.55036 | -98.59244 | 15431 ft | 364 kts | 103° |
| 2026-05-07 22:27 | 19.54508 | -98.56616 | 15628 ft | 372 kts | 103° |
| 2026-05-07 22:27 | 19.53966 | -98.53912 | 15951 ft | 376 kts | 103° |
| 2026-05-07 22:27 | 19.53426 | -98.51216 | 16339 ft | 378 kts | 103° |
| 2026-05-07 22:28 | 19.52878 | -98.48476 | 16752 ft | 379 kts | 103° |
| 2026-05-07 22:28 | 19.52336 | -98.45769 | 17149 ft | 380 kts | 103° |
| 2026-05-07 22:28 | 19.51784 | -98.43021 | 17520 ft | 382 kts | 103° |
| 2026-05-07 22:28 | 19.51228 | -98.40256 | 17902 ft | 383 kts | 103° |
| 2026-05-07 22:29 | 19.50670 | -98.37477 | 18285 ft | 385 kts | 103° |
| 2026-05-07 22:29 | 19.50119 | -98.34733 | 18639 ft | 387 kts | 104° |
| 2026-05-07 22:29 | 19.49542 | -98.31864 | 19007 ft | 389 kts | 104° |
| 2026-05-07 22:29 | 19.48980 | -98.29076 | 19344 ft | 391 kts | 104° |
| 2026-05-07 22:30 | 19.48411 | -98.26249 | 19689 ft | 393 kts | 104° |
| 2026-05-07 22:30 | 19.47834 | -98.23389 | 20030 ft | 395 kts | 104° |
| 2026-05-07 22:30 | 19.47258 | -98.20534 | 20368 ft | 397 kts | 104° |
| 2026-05-07 22:30 | 19.46678 | -98.17667 | 20701 ft | 399 kts | 104° |
| 2026-05-07 22:31 | 19.46099 | -98.14800 | 21030 ft | 401 kts | 104° |
| 2026-05-07 22:31 | 19.45512 | -98.11902 | 21357 ft | 403 kts | 104° |
| 2026-05-07 22:31 | 19.44922 | -98.08992 | 21684 ft | 405 kts | 105° |
| 2026-05-07 22:31 | 19.44330 | -98.06077 | 22005 ft | 407 kts | 105° |
| 2026-05-07 22:32 | 19.43740 | -98.03119 | 22317 ft | 410 kts | 103° |
| 2026-05-07 22:32 | 19.43264 | -98.00005 | 22638 ft | 413 kts | 100° |
| 2026-05-07 22:32 | 19.42938 | -97.96900 | 22954 ft | 416 kts | 98° |
| 2026-05-07 22:32 | 19.42634 | -97.93723 | 23258 ft | 419 kts | 98° |
| 2026-05-07 22:33 | 19.42332 | -97.90527 | 23579 ft | 420 kts | 98° |
| 2026-05-07 22:33 | 19.42030 | -97.87357 | 23882 ft | 423 kts | 99° |
| 2026-05-07 22:33 | 19.41720 | -97.84129 | 24183 ft | 425 kts | 99° |
| 2026-05-07 22:33 | 19.41408 | -97.80919 | 24459 ft | 428 kts | 99° |
| 2026-05-07 22:34 | 19.41087 | -97.77631 | 24746 ft | 430 kts | 99° |
| 2026-05-07 22:34 | 19.40770 | -97.74383 | 25049 ft | 432 kts | 98° |
| 2026-05-07 22:34 | 19.40453 | -97.71127 | 25291 ft | 435 kts | 99° |
| 2026-05-07 22:34 | 19.40143 | -97.67950 | 25541 ft | 437 kts | 98° |
| 2026-05-07 22:35 | 19.39828 | -97.64713 | 25812 ft | 439 kts | 98° |
| 2026-05-07 22:35 | 19.39515 | -97.61517 | 26064 ft | 441 kts | 98° |
| 2026-05-07 22:35 | 19.39196 | -97.58262 | 26309 ft | 443 kts | 98° |
| 2026-05-07 22:35 | 19.38882 | -97.55058 | 26173 ft | 427 kts | 98° |
| 2026-05-07 22:36 | 19.38621 | -97.52116 | 25585 ft | 377 kts | 96° |
| 2026-05-07 22:36 | 19.38623 | -97.49553 | 24749 ft | 341 kts | 90° |
| 2026-05-07 22:36 | 19.38693 | -97.47099 | 22467 ft | 350 kts | 92° |
| 2026-05-07 22:36 | 19.38734 | -97.44729 | 20598 ft | 305 kts | 93° |
| 2026-05-07 22:37 | 19.38705 | -97.42648 | 19468 ft | 266 kts | 96° |
| 2026-05-07 22:37 | 19.38615 | -97.40720 | 17861 ft | 266 kts | 96° |
| 2026-05-07 22:37 | 19.38481 | -97.38782 | 16221 ft | 269 kts | 97° |
| 2026-05-07 22:37 | 19.38302 | -97.36822 | 14829 ft | 281 kts | 97° |
| 2026-05-07 22:38 | 19.38062 | -97.34633 | 13681 ft | 317 kts | 97° |
| 2026-05-07 22:38 | 19.37783 | -97.32220 | 13642 ft | 334 kts | 97° |
| 2026-05-07 22:38 | 19.37495 | -97.29742 | 13895 ft | 344 kts | 97° |
| 2026-05-07 22:38 | 19.37199 | -97.27176 | 14102 ft | 354 kts | 97° |
| 2026-05-07 22:39 | 19.36895 | -97.24514 | 14342 ft | 362 kts | 97° |
| 2026-05-07 22:39 | 19.36598 | -97.21865 | 14809 ft | 362 kts | 98° |
| 2026-05-07 22:39 | 19.36303 | -97.19199 | 14997 ft | 362 kts | 97° |
| 2026-05-07 22:39 | 19.35854 | -97.16586 | 14986 ft | 362 kts | 110° |
| 2026-05-07 22:40 | 19.34631 | -97.14257 | 14995 ft | 363 kts | 130° |
| 2026-05-07 22:40 | 19.32674 | -97.12511 | 14981 ft | 364 kts | 150° |
| 2026-05-07 22:40 | 19.30304 | -97.11568 | 15010 ft | 368 kts | 170° |
| 2026-05-07 22:40 | 19.27734 | -97.11556 | 15335 ft | 374 kts | 189° |
| 2026-05-07 22:41 | 19.25264 | -97.12511 | 15880 ft | 375 kts | 210° |
| 2026-05-07 22:41 | 19.23261 | -97.14331 | 16351 ft | 380 kts | 230° |
| 2026-05-07 22:41 | 19.21996 | -97.16783 | 16748 ft | 386 kts | 251° |
| 2026-05-07 22:41 | 19.21633 | -97.19630 | 17119 ft | 392 kts | 270° |
| 2026-05-07 22:42 | 19.21833 | -97.22598 | 17560 ft | 395 kts | 274° |
| 2026-05-07 22:42 | 19.22093 | -97.25580 | 17952 ft | 398 kts | 274° |
| 2026-05-07 22:42 | 19.22348 | -97.28558 | 18353 ft | 401 kts | 273° |
| 2026-05-07 22:42 | 19.22593 | -97.31555 | 18776 ft | 403 kts | 273° |
| 2026-05-07 22:43 | 19.22833 | -97.34599 | 19204 ft | 404 kts | 272° |
| 2026-05-07 22:43 | 19.23068 | -97.37663 | 19617 ft | 406 kts | 272° |
| 2026-05-07 22:43 | 19.23293 | -97.40658 | 19951 ft | 408 kts | 272° |
| 2026-05-07 22:43 | 19.23520 | -97.43707 | 19998 ft | 408 kts | 272° |
| 2026-05-07 22:44 | 19.23746 | -97.46762 | 20000 ft | 407 kts | 272° |
| 2026-05-07 22:44 | 19.23972 | -97.49833 | 20001 ft | 407 kts | 272° |
| 2026-05-07 22:44 | 19.24196 | -97.52884 | 20005 ft | 406 kts | 272° |
| 2026-05-07 22:44 | 19.24418 | -97.55917 | 20005 ft | 403 kts | 272° |
| 2026-05-07 22:45 | 19.24637 | -97.58916 | 20007 ft | 403 kts | 272° |
| 2026-05-07 22:45 | 19.24855 | -97.61930 | 20009 ft | 402 kts | 272° |
| 2026-05-07 22:45 | 19.25071 | -97.64931 | 20010 ft | 402 kts | 272° |
| 2026-05-07 22:45 | 19.25293 | -97.68003 | 20011 ft | 402 kts | 272° |
| 2026-05-07 22:46 | 19.25510 | -97.71011 | 20011 ft | 402 kts | 272° |
| 2026-05-07 22:46 | 19.25724 | -97.73985 | 20011 ft | 402 kts | 272° |
| 2026-05-07 22:46 | 19.25938 | -97.76961 | 20011 ft | 402 kts | 272° |
| 2026-05-07 22:46 | 19.26148 | -97.79890 | 20012 ft | 402 kts | 272° |
| 2026-05-07 22:47 | 19.26359 | -97.82838 | 20012 ft | 402 kts | 272° |
| 2026-05-07 22:47 | 19.26572 | -97.85814 | 20011 ft | 402 kts | 272° |
| 2026-05-07 22:47 | 19.26782 | -97.88753 | 20011 ft | 402 kts | 272° |
| 2026-05-07 22:47 | 19.26989 | -97.91672 | 20011 ft | 402 kts | 272° |
| 2026-05-07 22:48 | 19.27198 | -97.94620 | 20012 ft | 402 kts | 272° |
| 2026-05-07 22:48 | 19.27408 | -97.97583 | 20017 ft | 402 kts | 272° |
| 2026-05-07 22:48 | 19.27616 | -98.00520 | 20028 ft | 403 kts | 272° |
| 2026-05-07 22:48 | 19.27826 | -98.03500 | 20043 ft | 403 kts | 272° |
| 2026-05-07 22:49 | 19.28034 | -98.06460 | 20062 ft | 404 kts | 272° |
| 2026-05-07 22:49 | 19.28244 | -98.09445 | 20084 ft | 404 kts | 272° |
| 2026-05-07 22:49 | 19.28407 | -98.12380 | 20101 ft | 403 kts | 266° |
| 2026-05-07 22:49 | 19.27846 | -98.15254 | 20115 ft | 396 kts | 243° |
| 2026-05-07 22:50 | 19.26559 | -98.17794 | 20159 ft | 394 kts | 236° |
| 2026-05-07 22:50 | 19.25130 | -98.20287 | 20177 ft | 394 kts | 236° |
| 2026-05-07 22:50 | 19.23738 | -98.22767 | 20191 ft | 395 kts | 237° |
| 2026-05-07 22:50 | 19.22385 | -98.25272 | 20199 ft | 395 kts | 238° |
| 2026-05-07 22:51 | 19.21054 | -98.27810 | 20206 ft | 395 kts | 238° |
| 2026-05-07 22:51 | 19.19724 | -98.30373 | 20209 ft | 395 kts | 238° |
| 2026-05-07 22:51 | 19.18362 | -98.32865 | 20211 ft | 395 kts | 237° |
| 2026-05-07 22:51 | 19.16980 | -98.35387 | 20213 ft | 395 kts | 237° |
| 2026-05-07 22:52 | 19.15663 | -98.37955 | 20205 ft | 397 kts | 245° |
| 2026-05-07 22:52 | 19.15079 | -98.40774 | 20196 ft | 404 kts | 268° |
| 2026-05-07 22:52 | 19.15602 | -98.43731 | 20206 ft | 410 kts | 291° |
| 2026-05-07 22:52 | 19.17153 | -98.46234 | 20209 ft | 414 kts | 314° |
| 2026-05-07 22:53 | 19.19505 | -98.47977 | 20211 ft | 417 kts | 336° |
| 2026-05-07 22:53 | 19.22329 | -98.48705 | 20212 ft | 416 kts | 359° |
| 2026-05-07 22:53 | 19.25154 | -98.48312 | 20213 ft | 413 kts | 21° |
| 2026-05-07 22:53 | 19.27621 | -98.46888 | 20212 ft | 407 kts | 43° |
| 2026-05-07 22:54 | 19.29438 | -98.44619 | 20215 ft | 401 kts | 63° |
| 2026-05-07 22:54 | 19.30675 | -98.41988 | 20222 ft | 400 kts | 68° |
| 2026-05-07 22:54 | 19.31843 | -98.39314 | 20217 ft | 400 kts | 68° |
| 2026-05-07 22:54 | 19.33024 | -98.36676 | 20215 ft | 400 kts | 67° |
| 2026-05-07 22:55 | 19.34231 | -98.34043 | 20213 ft | 400 kts | 68° |
| 2026-05-07 22:55 | 19.35022 | -98.31235 | 20195 ft | 393 kts | 88° |
| 2026-05-07 22:55 | 19.34799 | -98.28410 | 20206 ft | 387 kts | 108° |
| 2026-05-07 22:55 | 19.33651 | -98.25862 | 20210 ft | 383 kts | 128° |
| 2026-05-07 22:56 | 19.31745 | -98.23910 | 20212 ft | 381 kts | 148° |
| 2026-05-07 22:56 | 19.29344 | -98.22784 | 20212 ft | 380 kts | 167° |
| 2026-05-07 22:56 | 19.26738 | -98.22598 | 20209 ft | 382 kts | 186° |
| 2026-05-07 22:56 | 19.24168 | -98.23387 | 20021 ft | 385 kts | 205° |
| 2026-05-07 22:57 | 19.22036 | -98.25053 | 19777 ft | 389 kts | 225° |
| 2026-05-07 22:57 | 19.20509 | -98.27448 | 19533 ft | 393 kts | 240° |
| 2026-05-07 22:57 | 19.19308 | -98.30008 | 19288 ft | 392 kts | 242° |
| 2026-05-07 22:57 | 19.18129 | -98.32587 | 19033 ft | 391 kts | 241° |
| 2026-05-07 22:58 | 19.16933 | -98.35175 | 18776 ft | 390 kts | 241° |
| 2026-05-07 22:58 | 19.15753 | -98.37743 | 18521 ft | 390 kts | 244° |
| 2026-05-07 22:58 | 19.15054 | -98.40514 | 18251 ft | 394 kts | 262° |
| 2026-05-07 22:58 | 19.15128 | -98.43401 | 17992 ft | 396 kts | 278° |
| 2026-05-07 22:59 | 19.15965 | -98.46213 | 17726 ft | 398 kts | 295° |
| 2026-05-07 22:59 | 19.17438 | -98.48713 | 17478 ft | 397 kts | 304° |
| 2026-05-07 22:59 | 19.18932 | -98.51164 | 17222 ft | 395 kts | 296° |
| 2026-05-07 22:59 | 19.19943 | -98.53886 | 16966 ft | 391 kts | 285° |
| 2026-05-07 23:00 | 19.20688 | -98.56679 | 16713 ft | 389 kts | 284° |
| 2026-05-07 23:00 | 19.21367 | -98.59438 | 16475 ft | 388 kts | 283° |
| 2026-05-07 23:00 | 19.22029 | -98.62213 | 16183 ft | 385 kts | 283° |
| 2026-05-07 23:00 | 19.22678 | -98.64960 | 15921 ft | 383 kts | 283° |
| 2026-05-07 23:01 | 19.23340 | -98.67773 | 15669 ft | 381 kts | 283° |
| 2026-05-07 23:01 | 19.23993 | -98.70551 | 15405 ft | 380 kts | 283° |
| 2026-05-07 23:01 | 19.24622 | -98.73233 | 15163 ft | 378 kts | 283° |
| 2026-05-07 23:01 | 19.25258 | -98.75945 | 14927 ft | 377 kts | 283° |
| 2026-05-07 23:02 | 19.25880 | -98.78607 | 14660 ft | 374 kts | 283° |
| 2026-05-07 23:02 | 19.26507 | -98.81297 | 14399 ft | 374 kts | 283° |
| 2026-05-07 23:02 | 19.27127 | -98.83942 | 14137 ft | 372 kts | 283° |
| 2026-05-07 23:02 | 19.27752 | -98.86600 | 13893 ft | 370 kts | 283° |
| 2026-05-07 23:03 | 19.28368 | -98.89233 | 13633 ft | 370 kts | 283° |
| 2026-05-07 23:03 | 19.28982 | -98.91858 | 13360 ft | 367 kts | 283° |
| 2026-05-07 23:03 | 19.29583 | -98.94444 | 13092 ft | 365 kts | 283° |
| 2026-05-07 23:03 | 19.30196 | -98.97073 | 12831 ft | 364 kts | 284° |
| 2026-05-07 23:04 | 19.30796 | -98.99648 | 12574 ft | 363 kts | 283° |
| 2026-05-07 23:04 | 19.31397 | -99.02223 | 12237 ft | 360 kts | 284° |
| 2026-05-07 23:04 | 19.31992 | -99.04778 | 11842 ft | 358 kts | 284° |
| 2026-05-07 23:04 | 19.32584 | -99.07323 | 11393 ft | 356 kts | 284° |
| 2026-05-07 23:05 | 19.33173 | -99.09852 | 10963 ft | 353 kts | 284° |
| 2026-05-07 23:05 | 19.33754 | -99.12354 | 10574 ft | 349 kts | 284° |
| 2026-05-07 23:05 | 19.34332 | -99.14838 | 10284 ft | 340 kts | 284° |
| 2026-05-07 23:05 | 19.34883 | -99.17213 | 10137 ft | 328 kts | 284° |
| 2026-05-07 23:06 | 19.35414 | -99.19504 | 10036 ft | 314 kts | 284° |
| 2026-05-07 23:06 | 19.35922 | -99.21709 | 10006 ft | 300 kts | 284° |
| 2026-05-07 23:06 | 19.36407 | -99.23837 | 9978 ft | 300 kts | 284° |
| 2026-05-07 23:06 | 19.36888 | -99.25988 | 9991 ft | 305 kts | 285° |
| 2026-05-07 23:07 | 19.37391 | -99.28191 | 9978 ft | 308 kts | 284° |
| 2026-05-07 23:07 | 19.37893 | -99.30383 | 9993 ft | 311 kts | 284° |
| 2026-05-07 23:07 | 19.38356 | -99.32639 | 10283 ft | 318 kts | 275° |
| 2026-05-07 23:07 | 19.38047 | -99.34909 | 11025 ft | 310 kts | 245° |
| 2026-05-07 23:08 | 19.36785 | -99.36708 | 11664 ft | 306 kts | 217° |
| 2026-05-07 23:08 | 19.34884 | -99.37673 | 12145 ft | 308 kts | 189° |
| 2026-05-07 23:08 | 19.32774 | -99.37598 | 12602 ft | 309 kts | 162° |
| 2026-05-07 23:08 | 19.30896 | -99.36484 | 12960 ft | 309 kts | 135° |
| 2026-05-07 23:09 | 19.29727 | -99.34579 | 12998 ft | 309 kts | 107° |
| 2026-05-07 23:09 | 19.29531 | -99.32358 | 12955 ft | 308 kts | 81° |
| 2026-05-07 23:09 | 19.30209 | -99.30269 | 12705 ft | 300 kts | 63° |
| 2026-05-07 23:09 | 19.31287 | -99.28353 | 12125 ft | 302 kts | 57° |
| 2026-05-07 23:10 | 19.32428 | -99.26498 | 11659 ft | 298 kts | 57° |
| 2026-05-07 23:10 | 19.33525 | -99.24691 | 11223 ft | 292 kts | 58° |
| 2026-05-07 23:10 | 19.34590 | -99.22883 | 10846 ft | 284 kts | 59° |
| 2026-05-07 23:10 | 19.35602 | -99.21133 | 10421 ft | 278 kts | 58° |
| 2026-05-07 23:11 | 19.36583 | -99.19429 | 10135 ft | 268 kts | 58° |
| 2026-05-07 23:11 | 19.37538 | -99.17806 | 9744 ft | 253 kts | 58° |
| 2026-05-07 23:11 | 19.38421 | -99.16252 | 9368 ft | 238 kts | 59° |
| 2026-05-07 23:11 | 19.39237 | -99.14783 | 8872 ft | 231 kts | 59° |
| 2026-05-07 23:12 | 19.40027 | -99.13364 | 8525 ft | 212 kts | 59° |
| 2026-05-07 23:12 | 19.40737 | -99.12097 | 8266 ft | 193 kts | 59° |
| 2026-05-07 23:12 | 19.41394 | -99.10930 | 7973 ft | 177 kts | 61° |
| 2026-05-07 23:12 | 19.41995 | -99.09862 | 7723 ft | 160 kts | 60° |
| 2026-05-07 23:13 | 19.42540 | -99.08887 | 7509 ft | 151 kts | 62° |
| 2026-05-07 23:13 | 19.43070 | -99.07931 | 7343 ft | 147 kts | 61° |
| 2026-05-07 23:13 | 19.43458 | -99.07237 | 7337 ft | 65 kts | 60° |
| 2026-05-07 23:13 | 19.43646 | -99.06890 | 7335 ft | 44 kts | 62° |
| 2026-05-07 23:14 | 19.43789 | -99.06639 | 7333 ft | 36 kts | 59° |
| 2026-05-07 23:14 | 19.43943 | -99.06484 | 7333 ft | 23 kts | 28° |
| 2026-05-07 23:14 | 19.44067 | -99.06416 | 7332 ft | 18 kts | 28° |
| 2026-05-07 23:14 | 19.44168 | -99.06357 | 7332 ft | 10 kts | 25° |
| 2026-05-07 23:15 | 19.44235 | -99.06323 | 7332 ft | 10 kts | 25° |
| 2026-05-07 23:15 | 19.44303 | -99.06311 | 7332 ft | 10 kts | 353° |
| 2026-05-07 23:15 | 19.44366 | -99.06299 | 7332 ft | 9 kts | 347° |
| 2026-05-07 23:15 | 19.44399 | -99.06350 | 7332 ft | 7 kts | 248° |
| 2026-05-07 23:16 | 19.44378 | -99.06400 | 7332 ft | 7 kts | 235° |
| 2026-05-07 23:16 | 19.44348 | -99.06454 | 7333 ft | 9 kts | 240° |
| 2026-05-07 23:16 | 19.44316 | -99.06516 | 7334 ft | 10 kts | 240° |
| 2026-05-07 23:16 | 19.44277 | -99.06583 | 7335 ft | 11 kts | 236° |
| 2026-05-07 23:17 | 19.44225 | -99.06672 | 7336 ft | 20 kts | 239° |
| 2026-05-07 23:17 | 19.44131 | -99.06839 | 7338 ft | 27 kts | 239° |
| 2026-05-07 23:17 | 19.44039 | -99.07001 | 7338 ft | 24 kts | 238° |
| 2026-05-07 23:17 | 19.43959 | -99.07145 | 7339 ft | 20 kts | 240° |
| 2026-05-07 23:18 | 19.43893 | -99.07265 | 7339 ft | 17 kts | 240° |
| 2026-05-07 23:18 | 19.43832 | -99.07372 | 7339 ft | 16 kts | 238° |
| 2026-05-07 23:18 | 19.43777 | -99.07468 | 7339 ft | 14 kts | 239° |
| 2026-05-07 23:18 | 19.43730 | -99.07557 | 7339 ft | 12 kts | 241° |
| 2026-05-07 23:19 | 19.43746 | -99.07625 | 7340 ft | 11 kts | 341° |
| 2026-05-07 23:19 | 19.43800 | -99.07674 | 7338 ft | 9 kts | 282° |
| 2026-05-07 23:19 | 19.43799 | -99.07684 | 7338 ft | 0 kts | 227° |
| 2026-05-07 23:19 | 19.43790 | -99.07703 | 7339 ft | 4 kts | 244° |
| 2026-05-07 23:20 | 19.43777 | -99.07728 | 7340 ft | 2 kts | 241° |
| 2026-05-07 23:20 | 19.43776 | -99.07729 | 7340 ft | 0 kts | 241° |